createdAt,value
2023-04-22T00:00:11.960Z,7.37
2023-04-22T00:02:38.636Z,9.20
2023-04-22T00:05:05.421Z,9.25
2023-04-22T00:07:31.971Z,10.20
2023-04-22T00:09:58.411Z,13.51
2023-04-22T00:12:24.885Z,16.58
2023-04-22T00:14:51.495Z,14.78
2023-04-22T00:17:18.099Z,10.29
2023-04-22T00:19:44.759Z,11.16
2023-04-22T00:22:11.620Z,11.37
2023-04-22T00:24:38.119Z,12.08
2023-04-22T00:27:04.694Z,13.46
2023-04-22T00:29:31.295Z,12.11
2023-04-22T00:31:57.882Z,10.42
2023-04-22T00:34:24.447Z,8.14
2023-04-22T00:36:51.016Z,9.56
2023-04-22T00:39:17.604Z,9.73
2023-04-22T00:41:44.094Z,8.74
2023-04-22T00:44:10.605Z,9.08
2023-04-22T00:46:38.517Z,10.59
2023-04-22T00:49:08.104Z,10.38
2023-04-22T00:51:34.661Z,9.50
2023-04-22T00:54:01.171Z,11.28
2023-04-22T00:56:27.715Z,13.58
2023-04-22T00:58:54.275Z,13.00
2023-04-22T01:01:20.772Z,12.57
2023-04-22T01:03:50.374Z,12.68
2023-04-22T01:06:17.976Z,15.00
2023-04-22T01:08:46.712Z,14.02
2023-04-22T01:11:13.234Z,12.58
2023-04-22T01:13:39.699Z,11.90
2023-04-22T01:16:06.318Z,13.46
2023-04-22T01:18:32.868Z,12.32
2023-04-22T01:20:59.416Z,12.09
2023-04-22T01:23:26.009Z,12.93
2023-04-22T01:25:52.579Z,14.93
2023-04-22T01:28:19.449Z,17.25
2023-04-22T01:30:45.996Z,20.05
2023-04-22T01:33:12.596Z,18.30
2023-04-22T01:35:41.937Z,17.46
2023-04-22T01:38:08.461Z,16.30
2023-04-22T01:40:35.006Z,16.29
2023-04-22T01:43:01.653Z,16.93
2023-04-22T01:45:28.189Z,17.18
2023-04-22T01:47:54.854Z,17.13
2023-04-22T01:50:21.352Z,18.04
2023-04-22T01:52:47.910Z,19.43
2023-04-22T01:55:14.487Z,17.57
2023-04-22T01:57:41.045Z,18.37
2023-04-22T02:00:09.309Z,17.70
2023-04-22T02:02:35.977Z,17.45
2023-04-22T02:05:02.785Z,17.00
2023-04-22T02:07:29.418Z,15.74
2023-04-22T02:09:55.992Z,14.49
2023-04-22T02:12:22.606Z,13.50
2023-04-22T02:14:49.206Z,10.97
2023-04-22T02:17:15.744Z,12.93
2023-04-22T02:19:42.631Z,12.89
2023-04-22T02:22:09.421Z,13.19
2023-04-22T02:24:35.961Z,12.22
2023-04-22T02:27:02.535Z,11.16
2023-04-22T02:29:29.102Z,10.47
2023-04-22T02:31:55.974Z,9.66
2023-04-22T02:34:22.623Z,10.11
2023-04-22T02:36:49.144Z,9.47
2023-04-22T02:39:15.686Z,8.92
2023-04-22T02:41:42.380Z,9.93
2023-04-22T02:44:08.912Z,10.26
2023-04-22T02:46:35.509Z,10.97
2023-04-22T02:49:02.140Z,16.22
2023-04-22T02:51:28.725Z,16.76
2023-04-22T02:53:55.286Z,15.92
2023-04-22T02:56:22.444Z,13.91
2023-04-22T02:58:50.305Z,13.70
2023-04-22T03:01:16.796Z,12.32
2023-04-22T03:03:43.567Z,9.92
2023-04-22T03:06:10.397Z,7.64
2023-04-22T03:08:36.901Z,8.14
2023-04-22T03:11:03.466Z,7.18
2023-04-22T03:13:32.200Z,6.80
2023-04-22T03:15:58.828Z,6.61
2023-04-22T03:18:25.305Z,7.27
2023-04-22T03:20:51.923Z,8.97
2023-04-22T03:23:18.379Z,10.41
2023-04-22T03:25:44.975Z,9.89
2023-04-22T03:28:11.568Z,11.24
2023-04-22T03:30:38.135Z,12.05
2023-04-22T03:33:04.810Z,11.09
2023-04-22T03:35:31.436Z,11.61
2023-04-22T03:37:57.971Z,12.83
2023-04-22T03:40:24.507Z,14.83
2023-04-22T03:42:51.059Z,13.49
2023-04-22T03:45:17.559Z,13.61
2023-04-22T03:47:44.057Z,12.87
2023-04-22T03:50:10.616Z,12.13
2023-04-22T03:52:37.132Z,12.18
2023-04-22T03:55:03.736Z,11.40
2023-04-22T03:57:30.348Z,13.38
2023-04-22T03:59:56.890Z,13.87
2023-04-22T04:02:23.458Z,14.43
2023-04-22T04:04:50.236Z,14.06
2023-04-22T04:07:16.957Z,15.16
2023-04-22T04:09:43.495Z,12.47
2023-04-22T04:12:10.052Z,11.51
2023-04-22T04:14:36.646Z,10.51
2023-04-22T04:17:03.238Z,9.98
2023-04-22T04:19:29.763Z,8.04
2023-04-22T04:21:56.298Z,6.81
2023-04-22T04:24:22.845Z,5.54
2023-04-22T04:26:49.481Z,5.96
2023-04-22T04:29:16.003Z,5.62
2023-04-22T04:31:42.647Z,5.18
2023-04-22T04:34:09.428Z,5.09
2023-04-22T04:36:35.970Z,8.40
2023-04-22T04:39:02.447Z,10.42
2023-04-22T04:41:28.915Z,13.46
2023-04-22T04:43:55.415Z,13.29
2023-04-22T04:46:21.997Z,12.01
2023-04-22T04:48:48.515Z,10.12
2023-04-22T04:51:15.051Z,12.42
2023-04-22T04:53:41.568Z,11.87
2023-04-22T04:56:08.048Z,10.84
2023-04-22T04:58:34.736Z,11.19
2023-04-22T05:01:01.319Z,10.54
2023-04-22T05:03:28.018Z,11.51
2023-04-22T05:05:54.662Z,12.73
2023-04-22T05:08:21.286Z,13.75
2023-04-22T05:10:47.789Z,14.30
2023-04-22T05:13:14.299Z,14.10
2023-04-22T05:15:43.676Z,14.38
2023-04-22T05:18:10.335Z,14.07
2023-04-22T05:20:36.843Z,13.17
2023-04-22T05:23:03.479Z,11.96
2023-04-22T05:25:29.957Z,9.79
2023-04-22T05:27:56.507Z,14.21
2023-04-22T05:30:23.036Z,16.28
2023-04-22T05:32:49.662Z,16.54
2023-04-22T05:35:16.193Z,17.70
2023-04-22T05:37:42.752Z,17.75
2023-04-22T05:40:09.292Z,17.10
2023-04-22T05:42:35.891Z,17.52
2023-04-22T05:45:02.443Z,17.21
2023-04-22T05:47:29.128Z,17.79
2023-04-22T05:49:55.665Z,18.66
2023-04-22T05:52:22.155Z,17.61
2023-04-22T05:54:48.701Z,17.00
2023-04-22T05:57:15.285Z,17.43
2023-04-22T05:59:42.208Z,18.21
2023-04-22T06:02:09.043Z,17.69
2023-04-22T06:04:37.720Z,18.32
2023-04-22T06:07:05.070Z,21.00
2023-04-22T06:09:31.532Z,20.63
2023-04-22T06:11:57.996Z,19.91
2023-04-22T06:14:24.489Z,19.81
2023-04-22T06:16:51.049Z,20.03
2023-04-22T06:19:17.607Z,20.48
2023-04-22T06:21:44.131Z,21.22
2023-04-22T06:24:10.737Z,22.02
2023-04-22T06:26:37.285Z,22.04
2023-04-22T06:29:03.818Z,20.52
2023-04-22T06:31:30.461Z,20.55
2023-04-22T06:33:57.041Z,20.63
2023-04-22T06:36:23.577Z,22.01
2023-04-22T06:38:50.152Z,24.64
2023-04-22T06:41:16.693Z,21.32
2023-04-22T06:43:43.239Z,18.91
2023-04-22T06:46:09.774Z,15.19
2023-04-22T06:48:36.397Z,13.73
2023-04-22T06:51:02.959Z,17.94
2023-04-22T06:53:29.723Z,20.13
2023-04-22T06:55:56.246Z,20.22
2023-04-22T06:58:22.770Z,18.34
2023-04-22T07:00:49.312Z,16.21
2023-04-22T07:03:15.885Z,13.47
2023-04-22T07:05:42.455Z,9.83
2023-04-22T07:08:09.019Z,6.92
2023-04-22T07:10:36.193Z,16.90
2023-04-22T07:13:04.747Z,21.45
2023-04-22T07:15:31.272Z,21.55
2023-04-22T07:17:57.814Z,21.62
2023-04-22T07:20:24.270Z,22.84
2023-04-22T07:22:50.752Z,22.80
2023-04-22T07:25:17.276Z,22.89
2023-04-22T07:27:43.759Z,22.38
2023-04-22T07:30:10.210Z,22.04
2023-04-22T07:32:36.741Z,22.93
2023-04-22T07:35:03.337Z,23.85
2023-04-22T07:37:29.845Z,22.92
2023-04-22T07:39:56.341Z,22.61
2023-04-22T07:42:22.897Z,22.42
2023-04-22T07:44:49.482Z,23.20
2023-04-22T07:47:18.767Z,23.00
2023-04-22T07:49:45.214Z,23.47
2023-04-22T07:52:11.835Z,23.25
2023-04-22T07:54:38.387Z,23.07
2023-04-22T07:57:04.875Z,22.64
2023-04-22T07:59:31.460Z,22.28
2023-04-22T08:01:58.019Z,21.80
2023-04-22T08:04:24.676Z,22.22
2023-04-22T08:06:51.475Z,22.68
2023-04-22T08:09:18.030Z,22.61
2023-04-22T08:11:44.490Z,23.41
2023-04-22T08:14:11.001Z,24.46
2023-04-22T08:16:37.527Z,24.69
2023-04-22T08:19:04.039Z,24.88
2023-04-22T08:21:30.575Z,24.24
2023-04-22T08:23:57.110Z,24.41
2023-04-22T08:26:23.673Z,24.67
2023-04-22T08:28:50.208Z,25.14
2023-04-22T08:31:16.739Z,24.51
2023-04-22T08:33:43.254Z,25.43
2023-04-22T08:36:09.746Z,25.38
2023-04-22T08:38:36.327Z,25.18
2023-04-22T08:41:02.909Z,25.46
2023-04-22T08:43:29.505Z,25.06
2023-04-22T08:45:56.030Z,24.91
2023-04-22T08:48:22.601Z,24.56
2023-04-22T08:50:49.146Z,24.93
2023-04-22T08:53:18.359Z,25.14
2023-04-22T08:55:44.845Z,25.77
2023-04-22T08:58:11.375Z,25.10
2023-04-22T09:00:37.906Z,24.16
2023-04-22T09:03:04.525Z,24.08
2023-04-22T09:05:31.089Z,24.58
2023-04-22T09:07:57.565Z,25.23
2023-04-22T09:10:23.987Z,26.08
2023-04-22T09:12:50.481Z,26.79
2023-04-22T09:15:17.043Z,26.44
2023-04-22T09:17:43.533Z,26.65
2023-04-22T09:20:10.078Z,26.70
2023-04-22T09:22:36.573Z,25.82
2023-04-22T09:25:05.994Z,27.74
2023-04-22T09:27:32.516Z,29.11
2023-04-22T09:30:01.778Z,26.64
2023-04-22T09:32:28.365Z,26.66
2023-04-22T09:34:54.942Z,26.60
2023-04-22T09:37:21.476Z,26.31
2023-04-22T09:39:49.600Z,26.00
2023-04-22T09:42:16.339Z,26.25
2023-04-22T09:44:42.818Z,25.52
2023-04-22T09:47:11.352Z,26.57
2023-04-22T09:49:38.118Z,27.02
2023-04-22T09:52:04.696Z,26.60
2023-04-22T09:54:31.228Z,25.96
2023-04-22T09:56:57.814Z,26.28
2023-04-22T09:59:24.479Z,26.13
2023-04-22T10:01:51.061Z,25.36
2023-04-22T10:04:17.620Z,24.06
2023-04-22T10:06:44.133Z,27.05
2023-04-22T10:09:14.232Z,26.38
2023-04-22T10:11:40.660Z,26.21
2023-04-22T10:14:07.302Z,28.56
2023-04-22T10:16:33.820Z,26.94
2023-04-22T10:19:04.547Z,25.88
2023-04-22T10:21:31.038Z,26.44
2023-04-22T10:23:57.513Z,26.18
2023-04-22T10:26:24.014Z,24.44
2023-04-22T10:28:50.427Z,24.15
2023-04-22T10:31:17.079Z,23.65
2023-04-22T10:33:43.681Z,23.93
2023-04-22T10:36:13.611Z,24.98
2023-04-22T10:38:52.603Z,25.83
2023-04-22T10:41:19.057Z,25.51
2023-04-22T10:43:45.620Z,26.40
2023-04-22T10:46:12.194Z,26.68
2023-04-22T10:48:38.683Z,26.40
2023-04-22T10:51:05.082Z,26.75
2023-04-22T10:53:34.274Z,27.07
2023-04-22T10:56:00.861Z,26.94
2023-04-22T10:58:27.385Z,26.14
2023-04-22T11:00:54.537Z,26.54
2023-04-22T11:03:21.481Z,26.62
2023-04-22T11:05:48.166Z,26.65
2023-04-22T11:08:17.253Z,26.06
2023-04-22T11:10:44.591Z,25.34
2023-04-22T11:13:11.517Z,26.84
2023-04-22T11:15:38.031Z,26.70
2023-04-22T11:18:04.475Z,26.31
2023-04-22T11:20:30.986Z,26.41
2023-04-22T11:22:57.506Z,26.90
2023-04-22T11:25:24.003Z,26.94
2023-04-22T11:27:50.439Z,25.72
2023-04-22T11:30:16.925Z,25.98
2023-04-22T11:32:43.374Z,25.09
2023-04-22T11:35:09.894Z,26.33
2023-04-22T11:37:36.431Z,25.94
2023-04-22T11:40:27.284Z,26.64
2023-04-22T11:42:49.749Z,26.47
2023-04-22T11:45:16.277Z,25.49
2023-04-22T11:47:42.707Z,26.01
2023-04-22T11:50:09.210Z,25.94
2023-04-22T11:52:37.953Z,26.37
2023-04-22T11:55:06.677Z,28.76
2023-04-22T11:57:39.318Z,27.79
2023-04-22T12:00:05.687Z,28.24
2023-04-22T12:02:39.769Z,25.68
2023-04-22T12:05:06.392Z,25.11
2023-04-22T12:07:33.157Z,26.96
2023-04-22T12:10:05.704Z,26.30
2023-04-22T12:12:32.295Z,24.72
2023-04-22T12:14:58.721Z,25.65
2023-04-22T12:17:26.494Z,26.58
2023-04-22T12:19:53.031Z,27.45
2023-04-22T12:22:19.614Z,27.67
2023-04-22T12:24:46.072Z,27.71
2023-04-22T12:27:12.628Z,28.40
2023-04-22T12:29:39.406Z,29.12
2023-04-22T12:32:06.031Z,29.57
2023-04-22T12:34:32.565Z,28.90
2023-04-22T12:36:59.128Z,28.08
2023-04-22T12:39:25.690Z,27.38
2023-04-22T12:41:53.095Z,27.74
2023-04-22T12:44:22.556Z,29.36
2023-04-22T12:46:51.083Z,33.80
2023-04-22T12:49:17.594Z,26.21
2023-04-22T12:54:24.522Z,26.05
2023-04-22T12:56:51.145Z,23.04
2023-04-22T13:02:08.710Z,17.70
2023-04-22T13:04:47.558Z,17.94
2023-04-22T13:07:14.038Z,18.41
2023-04-22T13:09:41.130Z,17.56
2023-04-22T13:12:10.864Z,16.66
2023-04-22T13:14:37.378Z,16.52
2023-04-22T13:17:03.914Z,17.88
2023-04-22T13:19:30.381Z,17.21
2023-04-22T13:21:56.883Z,17.62
2023-04-22T13:24:23.401Z,16.15
2023-04-22T13:26:50.017Z,15.64
2023-04-22T13:29:16.438Z,15.96
2023-04-22T13:31:43.011Z,16.33
2023-04-22T13:34:09.552Z,16.59
2023-04-22T13:36:36.031Z,15.95
2023-04-22T13:39:02.585Z,15.90
2023-04-22T13:41:29.045Z,16.57
2023-04-22T13:43:55.514Z,18.15
2023-04-22T13:46:21.992Z,18.61
2023-04-22T13:48:48.602Z,19.19
2023-04-22T13:51:15.060Z,18.78
2023-04-22T13:53:41.544Z,19.97
2023-04-22T13:56:08.065Z,21.45
2023-04-22T13:58:34.523Z,23.67
2023-04-22T14:01:01.083Z,24.59
2023-04-22T14:03:27.785Z,24.04
2023-04-22T14:05:54.529Z,24.34
2023-04-22T14:08:21.040Z,23.98
2023-04-22T14:10:47.620Z,23.60
2023-04-22T14:13:14.136Z,26.75
2023-04-22T14:15:43.575Z,25.32
2023-04-22T14:18:10.218Z,28.53
2023-04-22T14:20:36.810Z,30.64
2023-04-22T14:23:03.283Z,26.21
2023-04-22T14:25:29.772Z,24.26
2023-04-22T14:27:56.286Z,24.13
2023-04-22T14:30:22.759Z,23.51
2023-04-22T14:32:49.291Z,22.25
2023-04-22T14:35:15.827Z,23.03
2023-04-22T14:37:46.174Z,22.32
2023-04-22T14:42:53.079Z,23.86
2023-04-22T14:45:20.754Z,24.07
2023-04-22T14:47:48.871Z,22.10
2023-04-22T14:50:15.462Z,23.14
2023-04-22T14:52:41.958Z,23.06
2023-04-22T14:55:19.610Z,23.88
2023-04-22T14:57:49.443Z,22.76
2023-04-22T15:00:15.970Z,22.16
2023-04-22T15:02:42.674Z,22.14
2023-04-22T15:05:09.241Z,27.75
2023-04-22T15:07:35.663Z,27.50
2023-04-22T15:10:02.153Z,23.96
2023-04-22T15:12:28.595Z,23.24
2023-04-22T15:14:55.180Z,24.58
2023-04-22T15:17:21.742Z,24.16
2023-04-22T15:19:48.244Z,24.22
2023-04-22T15:22:14.802Z,22.96
2023-04-22T15:24:41.246Z,19.27
2023-04-22T15:27:07.817Z,16.78
2023-04-22T15:29:34.418Z,14.72
2023-04-22T15:32:00.923Z,13.01
2023-04-22T15:34:27.481Z,10.15
2023-04-22T15:36:53.923Z,8.05
2023-04-22T15:39:20.484Z,6.63
2023-04-22T15:41:46.917Z,5.64
2023-04-22T15:44:13.411Z,5.24
2023-04-22T15:46:39.875Z,5.34
2023-04-22T15:49:06.368Z,5.12
2023-04-22T15:51:32.926Z,8.21
2023-04-22T15:53:59.469Z,10.34
2023-04-22T15:56:25.961Z,10.49
2023-04-22T15:58:53.479Z,11.88
2023-04-22T16:01:20.297Z,11.58
2023-04-22T16:03:46.930Z,11.78
2023-04-22T16:06:13.556Z,17.62
2023-04-22T16:08:40.110Z,17.79
2023-04-22T16:11:06.763Z,19.34
2023-04-22T16:13:33.581Z,19.37
2023-04-22T16:16:00.156Z,18.71
2023-04-22T16:18:26.675Z,17.13
2023-04-22T16:20:53.508Z,17.29
2023-04-22T16:23:20.109Z,17.30
2023-04-22T16:25:46.609Z,15.29
2023-04-22T16:28:13.014Z,13.86
2023-04-22T16:30:39.653Z,14.04
2023-04-22T16:33:06.838Z,13.68
2023-04-22T16:35:39.954Z,13.33
2023-04-22T16:38:06.450Z,16.59
2023-04-22T16:40:41.164Z,16.34
2023-04-22T16:43:07.706Z,18.18
2023-04-22T16:45:34.205Z,19.61
2023-04-22T16:48:00.710Z,20.28
2023-04-22T16:50:27.250Z,20.29
2023-04-22T16:52:53.802Z,21.53
2023-04-22T16:55:20.267Z,19.54
2023-04-22T16:57:46.825Z,19.48
2023-04-22T17:00:13.343Z,17.98
2023-04-22T17:02:39.988Z,17.75
2023-04-22T17:05:06.712Z,22.87
2023-04-22T17:07:33.225Z,23.08
2023-04-22T17:09:59.751Z,22.63
2023-04-22T17:12:26.249Z,20.48
2023-04-22T17:14:53.027Z,12.61
2023-04-22T17:17:20.660Z,17.50
2023-04-22T17:19:47.242Z,16.32
2023-04-22T17:25:06.509Z,19.91
2023-04-22T17:27:33.152Z,21.64
2023-04-22T17:29:59.701Z,30.95
2023-04-22T17:32:26.298Z,24.67
2023-04-22T17:34:52.795Z,21.18
2023-04-22T17:37:19.485Z,21.98
2023-04-22T17:39:46.020Z,21.98
2023-04-22T17:42:12.610Z,21.90
2023-04-22T17:44:39.311Z,23.10
2023-04-22T17:47:07.453Z,28.07
2023-04-22T17:49:34.785Z,22.80
2023-04-22T17:52:08.143Z,21.21
2023-04-22T17:54:34.767Z,21.40
2023-04-22T17:57:01.344Z,21.63
2023-04-22T17:59:27.853Z,22.41
2023-04-22T18:01:54.444Z,21.22
2023-04-22T18:04:20.990Z,20.57
2023-04-22T18:06:47.533Z,20.65
2023-04-22T18:09:14.108Z,22.31
2023-04-22T18:11:43.076Z,21.89
2023-04-22T18:14:09.993Z,20.86
2023-04-22T18:16:36.908Z,20.76
2023-04-22T18:19:03.425Z,19.99
2023-04-22T18:21:29.888Z,21.29
2023-04-22T18:23:57.334Z,24.26
2023-04-22T18:26:28.769Z,22.45
2023-04-22T18:28:55.785Z,20.47
2023-04-22T18:31:24.822Z,20.31
2023-04-22T18:33:51.710Z,20.30
2023-04-22T18:36:20.025Z,20.47
2023-04-22T18:38:46.652Z,20.17
2023-04-22T18:41:15.101Z,19.79
2023-04-22T18:46:23.507Z,20.45
2023-04-22T18:48:49.995Z,20.99
2023-04-22T18:51:16.601Z,20.51
2023-04-22T18:53:43.052Z,20.95
2023-04-22T18:56:09.500Z,21.34
2023-04-22T18:58:36.052Z,20.62
2023-04-22T19:01:02.626Z,20.77
2023-04-22T19:03:29.340Z,20.17
2023-04-22T19:05:55.968Z,20.81
2023-04-22T19:08:23.903Z,21.20
2023-04-22T19:10:50.482Z,21.43
2023-04-22T19:13:28.741Z,20.89
2023-04-22T19:15:56.483Z,20.96
2023-04-22T19:18:23.194Z,20.72
2023-04-22T19:20:49.790Z,19.88
2023-04-22T19:23:16.307Z,17.21
2023-04-22T19:25:42.795Z,11.68
2023-04-22T19:28:09.323Z,6.83
2023-04-22T19:30:35.812Z,6.33
2023-04-22T19:33:02.316Z,9.40
2023-04-22T19:35:28.847Z,12.20
2023-04-22T19:37:55.353Z,12.62
2023-04-22T19:40:21.916Z,14.82
2023-04-22T19:42:57.757Z,16.95
2023-04-22T19:48:04.555Z,18.15
2023-04-22T19:50:31.346Z,20.66
2023-04-22T19:52:59.831Z,21.45
2023-04-22T19:58:16.929Z,17.65
2023-04-22T20:00:43.598Z,16.82
2023-04-22T20:03:10.217Z,15.22
2023-04-22T20:05:36.928Z,16.49
2023-04-22T20:08:03.411Z,15.31
2023-04-22T20:10:29.979Z,14.71
2023-04-22T20:12:56.449Z,14.38
2023-04-22T20:15:22.912Z,18.13
2023-04-22T20:17:49.461Z,17.81
2023-04-22T20:20:15.988Z,19.53
2023-04-22T20:22:42.543Z,16.37
2023-04-22T20:25:09.112Z,16.29
2023-04-22T20:27:35.637Z,15.59
2023-04-22T20:30:02.167Z,15.07
2023-04-22T20:32:28.705Z,16.18
2023-04-22T20:34:55.196Z,14.29
2023-04-22T20:37:21.632Z,14.83
2023-04-22T20:39:48.130Z,15.17
2023-04-22T20:42:14.641Z,15.04
2023-04-22T20:44:41.385Z,14.56
2023-04-22T20:47:08.208Z,15.28
2023-04-22T20:49:34.715Z,13.72
2023-04-22T20:52:01.202Z,14.20
2023-04-22T20:54:29.266Z,13.75
2023-04-22T20:56:56.006Z,13.54
2023-04-22T20:59:22.500Z,13.20
2023-04-22T21:01:48.868Z,14.97
2023-04-22T21:04:15.632Z,13.72
2023-04-22T21:06:42.219Z,9.60
2023-04-22T21:09:08.622Z,10.21
2023-04-22T21:11:35.081Z,9.24
2023-04-22T21:14:01.559Z,12.00
2023-04-22T21:16:28.091Z,12.25
2023-04-22T21:18:54.631Z,12.15
2023-04-22T21:21:21.008Z,11.46
2023-04-22T21:23:47.439Z,9.83
2023-04-22T21:26:13.887Z,9.62
2023-04-22T21:28:43.813Z,9.28
2023-04-22T21:31:16.275Z,9.82
2023-04-22T21:33:42.803Z,10.05
2023-04-22T21:36:09.235Z,10.80
2023-04-22T21:38:35.641Z,12.83
2023-04-22T21:41:02.114Z,14.45
2023-04-22T21:43:28.639Z,13.90
2023-04-22T21:45:55.073Z,12.39
2023-04-22T21:48:21.492Z,12.02
2023-04-22T21:50:52.845Z,11.24
2023-04-22T21:53:19.389Z,12.00
2023-04-22T21:55:45.938Z,12.50
2023-04-22T21:58:12.453Z,12.55
2023-04-22T22:00:38.935Z,12.20
2023-04-22T22:03:09.777Z,12.25
2023-04-22T22:05:37.113Z,12.73
2023-04-22T22:08:03.834Z,12.76
2023-04-22T22:10:30.243Z,12.62
2023-04-22T22:12:56.723Z,13.67
2023-04-22T22:15:23.237Z,12.40
2023-04-22T22:17:49.762Z,11.35
2023-04-22T22:20:18.277Z,10.64
2023-04-22T22:22:44.669Z,10.98
2023-04-22T22:25:11.179Z,12.23
2023-04-22T22:27:37.751Z,12.10
2023-04-22T22:30:04.104Z,12.67
2023-04-22T22:32:30.623Z,12.66
2023-04-22T22:34:57.119Z,12.49
2023-04-22T22:37:23.461Z,12.31
2023-04-22T22:42:30.225Z,13.54
2023-04-22T22:44:56.735Z,14.70
2023-04-22T22:47:23.185Z,14.48
2023-04-22T22:49:49.621Z,14.75
2023-04-22T22:52:16.020Z,14.71
2023-04-22T22:54:42.759Z,13.49
2023-04-22T22:57:09.714Z,13.82
2023-04-22T22:59:36.240Z,14.35
2023-04-22T23:02:05.181Z,14.35
2023-04-22T23:04:31.933Z,15.66
2023-04-22T23:06:58.490Z,14.15
2023-04-22T23:09:24.964Z,10.67
2023-04-22T23:11:53.572Z,8.52
2023-04-22T23:14:20.205Z,6.59
2023-04-22T23:19:26.942Z,5.59
2023-04-22T23:21:53.515Z,10.57
2023-04-22T23:24:19.969Z,8.07
2023-04-22T23:26:46.503Z,4.22
2023-04-22T23:29:12.940Z,4.22
2023-04-22T23:31:39.629Z,4.21
2023-04-22T23:34:09.871Z,4.23
2023-04-22T23:36:36.312Z,4.42
2023-04-22T23:39:02.774Z,4.52
2023-04-22T23:41:29.189Z,4.52
2023-04-22T23:43:55.695Z,3.96
2023-04-22T23:46:23.402Z,4.36
2023-04-22T23:48:49.803Z,4.22
2023-04-22T23:51:16.147Z,4.03
2023-04-22T23:53:42.628Z,3.82
2023-04-22T23:56:08.975Z,3.91
2023-04-22T23:58:35.320Z,3.94
